Buoy 62725

sailwx.info

Track history (hours):
 
Tides and Currents Weather Stations Pressure Air Temp Water Temp Dewpoint Dewpoint Depression Visibility Wind Speed Wind Dir Waves Ship Positions

Drifting buoy 62725

Last reported at 2018-Feb-21 20:00 UTC. Time now 2018-Feb-21 21:13 UTC.
Position N 36°19' W 021°34'.

Date/timePositionNaut miles runAvg speedWind from/ knotsBaromVisibWave heightAir tempDewpointWater temp
2018-Feb-21 20:00N 36°19' W 021°34'1 1.0
2018-Feb-21 19:00N 36°19' W 021°32'0 0.5
2018-Feb-21 18:00N 36°19' W 021°32'0 0.0
2018-Feb-21 17:00N 36°19' W 021°32'1 0.8
2018-Feb-21 16:00N 36°18' W 021°31'0 0.0
2018-Feb-21 15:00N 36°18' W 021°31'2 0.4
2018-Feb-21 11:00N 36°19' W 021°29'1 1.1
2018-Feb-21 10:00N 36°19' W 021°28'1 0.8
2018-Feb-21 09:00N 36°19' W 021°29'1 1.0
2018-Feb-21 08:00N 36°19' W 021°28'1 0.3
2018-Feb-21 06:00N 36°18' W 021°28'0 0.0
2018-Feb-21 05:00N 36°18' W 021°28'2 1.9
2018-Feb-21 04:00N 36°17' W 021°26'0 0.0
2018-Feb-21 03:00N 36°17' W 021°26'1 0.2
2018-Feb-20 23:00N 36°17' W 021°25'0 0.5
2018-Feb-20 22:00N 36°17' W 021°25'1 0.6
2018-Feb-20 21:00N 36°17' W 021°25'0 0.0
2018-Feb-20 20:00N 36°17' W 021°25'0 0.5
2018-Feb-20 19:00N 36°17' W 021°24'0 0.0
2018-Feb-20 18:00N 36°17' W 021°24'0 0.0
2018-Feb-20 17:00N 36°17' W 021°24'1 0.8
2018-Feb-20 16:00N 36°16' W 021°23'1 0.8
2018-Feb-20 15:00N 36°17' W 021°24'1 0.3
2018-Feb-20 12:00N 36°16' W 021°23'0 0.5
2018-Feb-20 11:00N 36°16' W 021°23'1 0.6
2018-Feb-20 10:00N 36°17' W 021°23'1 1.1
2018-Feb-20 09:00N 36°16' W 021°22'0 0.0
2018-Feb-20 08:00N 36°16' W 021°22'0 0.0
2018-Feb-20 07:00N 36°16' W 021°22'0 0.5
2018-Feb-20 06:00N 36°16' W 021°21'0 0.0
2018-Feb-20 05:00N 36°16' W 021°21'1 1.1
2018-Feb-20 04:00N 36°16' W 021°20'1 0.2
2018-Feb-19 23:00N 36°16' W 021°19'2 0.5
2018-Feb-19 20:00N 36°17' W 021°17'1 1.1
2018-Feb-19 19:00N 36°16' W 021°16'0 0.0
2018-Feb-19 18:00N 36°16' W 021°16'1 0.8
2018-Feb-19 17:00N 36°17' W 021°17'0 0.0
2018-Feb-19 16:00N 36°17' W 021°17'0 0.0
2018-Feb-19 15:00N 36°17' W 021°17'1 0.5
2018-Feb-19 12:00N 36°17' W 021°15'1 0.6
2018-Feb-19 11:00N 36°16' W 021°15'0 0.5
2018-Feb-19 10:00N 36°16' W 021°14'1 1.0
2018-Feb-19 09:00N 36°16' W 021°13'1 0.4
2018-Feb-19 07:00N 36°17' W 021°13'0 0.5
2018-Feb-19 06:00N 36°17' W 021°12'0 0.0
2018-Feb-19 05:00N 36°17' W 021°12'0 0.5
2018-Feb-19 04:00N 36°17' W 021°11'1 0.2
2018-Feb-18 23:00N 36°17' W 021°10'0 0.0
2018-Feb-18 22:00N 36°17' W 021°10'0 0.0
2018-Feb-18 21:00N 36°17' W 021°10'0 0.0
2018-Feb-18 20:00N 36°17' W 021°10'1 1.0
2018-Feb-18 19:00N 36°17' W 021°09'0 0.0
2018-Feb-18 18:00N 36°17' W 021°09'1 0.8
2018-Feb-18 17:00N 36°17' W 021°08'2 1.6
2018-Feb-18 16:00N 36°17' W 021°07'0 0.0
2018-Feb-18 14:00N 36°17' W 021°07'1 0.4
2018-Feb-18 12:00N 36°17' W 021°06'0 0.5
2018-Feb-18 11:00N 36°17' W 021°05'1 0.8
2018-Feb-18 10:00N 36°17' W 021°05'0 0.5
2018-Feb-18 09:00N 36°17' W 021°05'1 0.8
2018-Feb-18 08:00N 36°18' W 021°05'0 0.5
2018-Feb-18 07:00N 36°18' W 021°04'0 0.0
2018-Feb-18 06:00N 36°18' W 021°04'2 2.4
2018-Feb-18 05:00N 36°18' W 021°01'0 0.0
2018-Feb-18 04:00N 36°18' W 021°01'0 0.1
2018-Feb-17 23:00N 36°18' W 021°01'0 0.0
2018-Feb-17 22:00N 36°18' W 021°01'0 0.0
2018-Feb-17 21:00N 36°18' W 021°01'0 0.5
2018-Feb-17 20:00N 36°18' W 021°00'1 1.0
2018-Feb-17 19:00N 36°18' W 020°59'2 2.5
2018-Feb-17 18:00N 36°19' W 020°56'0 0.0
2018-Feb-17 17:00N 36°19' W 020°56'0 0.5
2018-Feb-17 16:00N 36°19' W 020°56'2 2.4
2018-Feb-17 15:00N 36°19' W 020°53'1 0.3
2018-Feb-17 12:00N 36°19' W 020°53'0 0.0
2018-Feb-17 11:00N 36°19' W 020°53'0 0.0
2018-Feb-17 10:00N 36°19' W 020°53'1 0.8
2018-Feb-17 09:00N 36°20' W 020°52'1 0.8
2018-Feb-17 08:00N 36°19' W 020°52'0 0.5
2018-Feb-17 07:00N 36°19' W 020°51'1 0.6
2018-Feb-17 06:00N 36°20' W 020°51'1 1.5
2018-Feb-17 05:00N 36°20' W 020°49'0 0.0
2018-Feb-17 04:00N 36°20' W 020°49'0 0.0
2018-Feb-16 23:00N 36°20' W 020°49'1 0.8
2018-Feb-16 22:00N 36°19' W 020°49'0 0.0
2018-Feb-16 21:00N 36°19' W 020°49'0 0.5
2018-Feb-16 20:00N 36°19' W 020°48'1 1.1
2018-Feb-16 19:00N 36°20' W 020°47'0 0.5
2018-Feb-16 18:00N 36°20' W 020°46'0 0.0
2018-Feb-16 17:00N 36°20' W 020°46'1 1.1
2018-Feb-16 16:00N 36°20' W 020°45'2 0.6
2018-Feb-16 12:00N 36°22' W 020°43'1 0.4
2018-Feb-16 10:00N 36°21' W 020°43'0 0.0
2018-Feb-16 09:00N 36°21' W 020°43'0 0.5
2018-Feb-16 08:00N 36°21' W 020°44'1 1.1
2018-Feb-16 07:00N 36°20' W 020°43'0 0.0
2018-Feb-16 06:00N 36°20' W 020°43'1 1.2
2018-Feb-16 05:00N 36°19' W 020°43'0 0.0
2018-Feb-16 04:00N 36°19' W 020°43'1 1.1
2018-Feb-16 03:00N 36°19' W 020°41'0 0.1
2018-Feb-15 23:00N 36°19' W 020°41'0 0.5
2018-Feb-15 22:00N 36°19' W 020°40'0 0.0
2018-Feb-15 21:00N 36°19' W 020°40'0 0.0
2018-Feb-15 20:00N 36°19' W 020°40'0 0.5
2018-Feb-15 19:00N 36°19' W 020°40'1 0.8
2018-Feb-15 18:00N 36°19' W 020°39'0 0.5
2018-Feb-15 17:00N 36°19' W 020°40'1 0.6
2018-Feb-15 16:00N 36°19' W 020°40'1 0.6
2018-Feb-15 15:00N 36°18' W 020°40'0 0.2
2018-Feb-15 12:00N 36°18' W 020°39'1 1.0
2018-Feb-15 11:00N 36°18' W 020°40'1 1.0
2018-Feb-15 10:00N 36°18' W 020°39'0 0.0
2018-Feb-15 09:00N 36°18' W 020°39'1 0.8
2018-Feb-15 08:00N 36°17' W 020°38'1 0.8
2018-Feb-15 07:00N 36°17' W 020°38'0 0.0
2018-Feb-15 06:00N 36°17' W 020°38'1 1.1
2018-Feb-15 05:00N 36°16' W 020°37'0 0.0
2018-Feb-15 04:00N 36°16' W 020°37'0 0.0
2018-Feb-15 03:00N 36°16' W 020°37'1 0.2
2018-Feb-14 23:00N 36°16' W 020°37'0 0.0
2018-Feb-14 21:00N 36°16' W 020°37'0 0.5
2018-Feb-14 20:00N 36°16' W 020°36'1 0.8
2018-Feb-14 19:00N 36°15' W 020°37'0 0.0
2018-Feb-14 18:00N 36°15' W 020°37'0 0.0
2018-Feb-14 17:00N 36°15' W 020°37'0 0.5
2018-Feb-14 16:00N 36°15' W 020°37'0 0.0
2018-Feb-14 15:00N 36°15' W 020°37'2 0.5
2018-Feb-14 12:00N 36°14' W 020°38'1 0.8
2018-Feb-14 11:00N 36°13' W 020°38'0 0.0
2018-Feb-14 10:00N 36°13' W 020°38'0 0.0
2018-Feb-14 09:00N 36°13' W 020°38'1 0.8
2018-Feb-14 08:00N 36°13' W 020°38'0 0.2
2018-Feb-14 06:00N 36°13' W 020°38'0 0.5
2018-Feb-14 05:00N 36°13' W 020°38'1 1.3
2018-Feb-14 04:00N 36°11' W 020°39'0 0.0
2018-Feb-14 03:00N 36°11' W 020°39'0 0.1
2018-Feb-13 23:00N 36°11' W 020°38'0 0.5
2018-Feb-13 22:00N 36°11' W 020°39'0 0.5
2018-Feb-13 21:00N 36°11' W 020°40'0 0.5
2018-Feb-13 20:00N 36°11' W 020°39'0 0.0
2018-Feb-13 19:00N 36°11' W 020°39'0 0.5
2018-Feb-13 18:00N 36°11' W 020°40'0 0.5
2018-Feb-13 17:00N 36°11' W 020°40'0 0.0
2018-Feb-13 16:00N 36°11' W 020°40'0 0.0
2018-Feb-13 15:00N 36°11' W 020°40'2 0.5
2018-Feb-13 12:00N 36°10' W 020°41'0 0.0
2018-Feb-13 11:00N 36°10' W 020°41'1 1.2
2018-Feb-13 10:00N 36°09' W 020°41'0 0.5
2018-Feb-13 09:00N 36°09' W 020°42'1 1.1
2018-Feb-13 08:00N 36°08' W 020°43'0 0.0
2018-Feb-13 07:00N 36°08' W 020°43'1 0.6
2018-Feb-13 06:00N 36°09' W 020°43'0 0.5
2018-Feb-13 05:00N 36°09' W 020°44'0 0.0
2018-Feb-13 04:00N 36°09' W 020°44'0 0.0
2018-Feb-13 03:00N 36°09' W 020°44'1 0.1
2018-Feb-12 22:00N 36°10' W 020°44'1 0.8
2018-Feb-12 21:00N 36°10' W 020°44'1 1.0
2018-Feb-12 20:00N 36°10' W 020°46'0 0.0
2018-Feb-12 19:00N 36°10' W 020°46'0 0.0
2018-Feb-12 18:00N 36°10' W 020°46'0 0.0
2018-Feb-12 17:00N 36°10' W 020°46'0 0.0
2018-Feb-12 16:00N 36°10' W 020°46'0 0.0
2018-Feb-12 15:00N 36°10' W 020°46'1 0.3
2018-Feb-12 12:00N 36°10' W 020°46'0 0.5
2018-Feb-12 11:00N 36°10' W 020°46'0 0.5
2018-Feb-12 10:00N 36°10' W 020°45'1 0.6
2018-Feb-12 09:00N 36°10' W 020°45'0 0.0
2018-Feb-12 08:00N 36°10' W 020°45'0 0.5
2018-Feb-12 07:00N 36°10' W 020°44'0 0.0
2018-Feb-12 06:00N 36°10' W 020°44'1 0.6
2018-Feb-12 05:00N 36°11' W 020°44'0 0.0
2018-Feb-12 04:00N 36°11' W 020°44'0 0.0
2018-Feb-12 03:00N 36°11' W 020°44'1 0.3
2018-Feb-11 23:00N 36°11' W 020°43'1 0.8
2018-Feb-11 22:00N 36°12' W 020°43'0 0.0
2018-Feb-11 21:00N 36°12' W 020°43'1 0.6
2018-Feb-11 20:00N 36°13' W 020°43'  
Track history (hours):
 
Tides and Currents Weather Stations Pressure Air Temp Water Temp Dewpoint Dewpoint Depression Visibility Wind Speed Wind Dir Waves Ship Positions

Drifting buoy 62725

Last reported at 2018-Feb-21 20:00 UTC. Time now 2018-Feb-21 21:13 UTC.
Position N 36°19' W 021°34'.

Date/timePositionNaut miles runAvg speedWind from/ knotsBaromVisibWave heightAir tempDewpointWater temp
2018-Feb-21 20:00N 36°19' W 021°34'1 1.0
2018-Feb-21 19:00N 36°19' W 021°32'0 0.5
2018-Feb-21 18:00N 36°19' W 021°32'0 0.0
2018-Feb-21 17:00N 36°19' W 021°32'1 0.8
2018-Feb-21 16:00N 36°18' W 021°31'0 0.0
2018-Feb-21 15:00N 36°18' W 021°31'2 0.4
2018-Feb-21 11:00N 36°19' W 021°29'1 1.1
2018-Feb-21 10:00N 36°19' W 021°28'1 0.8
2018-Feb-21 09:00N 36°19' W 021°29'1 1.0
2018-Feb-21 08:00N 36°19' W 021°28'1 0.3
2018-Feb-21 06:00N 36°18' W 021°28'0 0.0
2018-Feb-21 05:00N 36°18' W 021°28'2 1.9
2018-Feb-21 04:00N 36°17' W 021°26'0 0.0
2018-Feb-21 03:00N 36°17' W 021°26'1 0.2
2018-Feb-20 23:00N 36°17' W 021°25'0 0.5
2018-Feb-20 22:00N 36°17' W 021°25'1 0.6
2018-Feb-20 21:00N 36°17' W 021°25'0 0.0
2018-Feb-20 20:00N 36°17' W 021°25'0 0.5
2018-Feb-20 19:00N 36°17' W 021°24'0 0.0
2018-Feb-20 18:00N 36°17' W 021°24'0 0.0
2018-Feb-20 17:00N 36°17' W 021°24'1 0.8
2018-Feb-20 16:00N 36°16' W 021°23'1 0.8
2018-Feb-20 15:00N 36°17' W 021°24'1 0.3
2018-Feb-20 12:00N 36°16' W 021°23'0 0.5
2018-Feb-20 11:00N 36°16' W 021°23'1 0.6
2018-Feb-20 10:00N 36°17' W 021°23'1 1.1
2018-Feb-20 09:00N 36°16' W 021°22'0 0.0
2018-Feb-20 08:00N 36°16' W 021°22'0 0.0
2018-Feb-20 07:00N 36°16' W 021°22'0 0.5
2018-Feb-20 06:00N 36°16' W 021°21'0 0.0
2018-Feb-20 05:00N 36°16' W 021°21'1 1.1
2018-Feb-20 04:00N 36°16' W 021°20'1 0.2
2018-Feb-19 23:00N 36°16' W 021°19'2 0.5
2018-Feb-19 20:00N 36°17' W 021°17'1 1.1
2018-Feb-19 19:00N 36°16' W 021°16'0 0.0
2018-Feb-19 18:00N 36°16' W 021°16'1 0.8
2018-Feb-19 17:00N 36°17' W 021°17'0 0.0
2018-Feb-19 16:00N 36°17' W 021°17'0 0.0
2018-Feb-19 15:00N 36°17' W 021°17'1 0.5
2018-Feb-19 12:00N 36°17' W 021°15'1 0.6
2018-Feb-19 11:00N 36°16' W 021°15'0 0.5
2018-Feb-19 10:00N 36°16' W 021°14'1 1.0
2018-Feb-19 09:00N 36°16' W 021°13'1 0.4
2018-Feb-19 07:00N 36°17' W 021°13'0 0.5
2018-Feb-19 06:00N 36°17' W 021°12'0 0.0
2018-Feb-19 05:00N 36°17' W 021°12'0 0.5
2018-Feb-19 04:00N 36°17' W 021°11'1 0.2
2018-Feb-18 23:00N 36°17' W 021°10'0 0.0
2018-Feb-18 22:00N 36°17' W 021°10'0 0.0
2018-Feb-18 21:00N 36°17' W 021°10'0 0.0
2018-Feb-18 20:00N 36°17' W 021°10'1 1.0
2018-Feb-18 19:00N 36°17' W 021°09'0 0.0
2018-Feb-18 18:00N 36°17' W 021°09'1 0.8
2018-Feb-18 17:00N 36°17' W 021°08'2 1.6
2018-Feb-18 16:00N 36°17' W 021°07'0 0.0
2018-Feb-18 14:00N 36°17' W 021°07'1 0.4
2018-Feb-18 12:00N 36°17' W 021°06'0 0.5
2018-Feb-18 11:00N 36°17' W 021°05'1 0.8
2018-Feb-18 10:00N 36°17' W 021°05'0 0.5
2018-Feb-18 09:00N 36°17' W 021°05'1 0.8
2018-Feb-18 08:00N 36°18' W 021°05'0 0.5
2018-Feb-18 07:00N 36°18' W 021°04'0 0.0
2018-Feb-18 06:00N 36°18' W 021°04'2 2.4
2018-Feb-18 05:00N 36°18' W 021°01'0 0.0
2018-Feb-18 04:00N 36°18' W 021°01'0 0.1
2018-Feb-17 23:00N 36°18' W 021°01'0 0.0
2018-Feb-17 22:00N 36°18' W 021°01'0 0.0
2018-Feb-17 21:00N 36°18' W 021°01'0 0.5
2018-Feb-17 20:00N 36°18' W 021°00'1 1.0
2018-Feb-17 19:00N 36°18' W 020°59'2 2.5
2018-Feb-17 18:00N 36°19' W 020°56'0 0.0
2018-Feb-17 17:00N 36°19' W 020°56'0 0.5
2018-Feb-17 16:00N 36°19' W 020°56'2 2.4
2018-Feb-17 15:00N 36°19' W 020°53'1 0.3
2018-Feb-17 12:00N 36°19' W 020°53'0 0.0
2018-Feb-17 11:00N 36°19' W 020°53'0 0.0
2018-Feb-17 10:00N 36°19' W 020°53'1 0.8
2018-Feb-17 09:00N 36°20' W 020°52'1 0.8
2018-Feb-17 08:00N 36°19' W 020°52'0 0.5
2018-Feb-17 07:00N 36°19' W 020°51'1 0.6
2018-Feb-17 06:00N 36°20' W 020°51'1 1.5
2018-Feb-17 05:00N 36°20' W 020°49'0 0.0
2018-Feb-17 04:00N 36°20' W 020°49'0 0.0
2018-Feb-16 23:00N 36°20' W 020°49'1 0.8
2018-Feb-16 22:00N 36°19' W 020°49'0 0.0
2018-Feb-16 21:00N 36°19' W 020°49'0 0.5
2018-Feb-16 20:00N 36°19' W 020°48'1 1.1
2018-Feb-16 19:00N 36°20' W 020°47'0 0.5
2018-Feb-16 18:00N 36°20' W 020°46'0 0.0
2018-Feb-16 17:00N 36°20' W 020°46'1 1.1
2018-Feb-16 16:00N 36°20' W 020°45'2 0.6
2018-Feb-16 12:00N 36°22' W 020°43'1 0.4
2018-Feb-16 10:00N 36°21' W 020°43'0 0.0
2018-Feb-16 09:00N 36°21' W 020°43'0 0.5
2018-Feb-16 08:00N 36°21' W 020°44'1 1.1
2018-Feb-16 07:00N 36°20' W 020°43'0 0.0
2018-Feb-16 06:00N 36°20' W 020°43'1 1.2
2018-Feb-16 05:00N 36°19' W 020°43'0 0.0
2018-Feb-16 04:00N 36°19' W 020°43'1 1.1
2018-Feb-16 03:00N 36°19' W 020°41'0 0.1
2018-Feb-15 23:00N 36°19' W 020°41'0 0.5
2018-Feb-15 22:00N 36°19' W 020°40'0 0.0
2018-Feb-15 21:00N 36°19' W 020°40'0 0.0
2018-Feb-15 20:00N 36°19' W 020°40'0 0.5
2018-Feb-15 19:00N 36°19' W 020°40'1 0.8
2018-Feb-15 18:00N 36°19' W 020°39'0 0.5
2018-Feb-15 17:00N 36°19' W 020°40'1 0.6
2018-Feb-15 16:00N 36°19' W 020°40'1 0.6
2018-Feb-15 15:00N 36°18' W 020°40'0 0.2
2018-Feb-15 12:00N 36°18' W 020°39'1 1.0
2018-Feb-15 11:00N 36°18' W 020°40'1 1.0
2018-Feb-15 10:00N 36°18' W 020°39'0 0.0
2018-Feb-15 09:00N 36°18' W 020°39'1 0.8
2018-Feb-15 08:00N 36°17' W 020°38'1 0.8
2018-Feb-15 07:00N 36°17' W 020°38'0 0.0
2018-Feb-15 06:00N 36°17' W 020°38'1 1.1
2018-Feb-15 05:00N 36°16' W 020°37'0 0.0
2018-Feb-15 04:00N 36°16' W 020°37'0 0.0
2018-Feb-15 03:00N 36°16' W 020°37'1 0.2
2018-Feb-14 23:00N 36°16' W 020°37'0 0.0
2018-Feb-14 21:00N 36°16' W 020°37'0 0.5
2018-Feb-14 20:00N 36°16' W 020°36'1 0.8
2018-Feb-14 19:00N 36°15' W 020°37'0 0.0
2018-Feb-14 18:00N 36°15' W 020°37'0 0.0
2018-Feb-14 17:00N 36°15' W 020°37'0 0.5
2018-Feb-14 16:00N 36°15' W 020°37'0 0.0
2018-Feb-14 15:00N 36°15' W 020°37'2 0.5
2018-Feb-14 12:00N 36°14' W 020°38'1 0.8
2018-Feb-14 11:00N 36°13' W 020°38'0 0.0
2018-Feb-14 10:00N 36°13' W 020°38'0 0.0
2018-Feb-14 09:00N 36°13' W 020°38'1 0.8
2018-Feb-14 08:00N 36°13' W 020°38'0 0.2
2018-Feb-14 06:00N 36°13' W 020°38'0 0.5
2018-Feb-14 05:00N 36°13' W 020°38'1 1.3
2018-Feb-14 04:00N 36°11' W 020°39'0 0.0
2018-Feb-14 03:00N 36°11' W 020°39'0 0.1
2018-Feb-13 23:00N 36°11' W 020°38'0 0.5
2018-Feb-13 22:00N 36°11' W 020°39'0 0.5
2018-Feb-13 21:00N 36°11' W 020°40'0 0.5
2018-Feb-13 20:00N 36°11' W 020°39'0 0.0
2018-Feb-13 19:00N 36°11' W 020°39'0 0.5
2018-Feb-13 18:00N 36°11' W 020°40'0 0.5
2018-Feb-13 17:00N 36°11' W 020°40'0 0.0
2018-Feb-13 16:00N 36°11' W 020°40'0 0.0
2018-Feb-13 15:00N 36°11' W 020°40'2 0.5
2018-Feb-13 12:00N 36°10' W 020°41'0 0.0
2018-Feb-13 11:00N 36°10' W 020°41'1 1.2
2018-Feb-13 10:00N 36°09' W 020°41'0 0.5
2018-Feb-13 09:00N 36°09' W 020°42'1 1.1
2018-Feb-13 08:00N 36°08' W 020°43'0 0.0
2018-Feb-13 07:00N 36°08' W 020°43'1 0.6
2018-Feb-13 06:00N 36°09' W 020°43'0 0.5
2018-Feb-13 05:00N 36°09' W 020°44'0 0.0
2018-Feb-13 04:00N 36°09' W 020°44'0 0.0
2018-Feb-13 03:00N 36°09' W 020°44'1 0.1
2018-Feb-12 22:00N 36°10' W 020°44'1 0.8
2018-Feb-12 21:00N 36°10' W 020°44'1 1.0
2018-Feb-12 20:00N 36°10' W 020°46'0 0.0
2018-Feb-12 19:00N 36°10' W 020°46'0 0.0
2018-Feb-12 18:00N 36°10' W 020°46'0 0.0
2018-Feb-12 17:00N 36°10' W 020°46'0 0.0
2018-Feb-12 16:00N 36°10' W 020°46'0 0.0
2018-Feb-12 15:00N 36°10' W 020°46'1 0.3
2018-Feb-12 12:00N 36°10' W 020°46'0 0.5
2018-Feb-12 11:00N 36°10' W 020°46'0 0.5
2018-Feb-12 10:00N 36°10' W 020°45'1 0.6
2018-Feb-12 09:00N 36°10' W 020°45'0 0.0
2018-Feb-12 08:00N 36°10' W 020°45'0 0.5
2018-Feb-12 07:00N 36°10' W 020°44'0 0.0
2018-Feb-12 06:00N 36°10' W 020°44'1 0.6
2018-Feb-12 05:00N 36°11' W 020°44'0 0.0
2018-Feb-12 04:00N 36°11' W 020°44'0 0.0
2018-Feb-12 03:00N 36°11' W 020°44'1 0.3
2018-Feb-11 23:00N 36°11' W 020°43'1 0.8
2018-Feb-11 22:00N 36°12' W 020°43'0 0.0
2018-Feb-11 21:00N 36°12' W 020°43'1 0.6
2018-Feb-11 20:00N 36°13' W 020°43'  

Dump ship's entire track history